createdAt,value
2022-08-22T00:01:44.341Z,99.67
2022-08-22T00:02:43.756Z,98.63
2022-08-22T00:02:59.342Z,99.12
2022-08-22T00:05:10.436Z,100.00
2022-08-22T00:08:23.742Z,100.00
2022-08-22T00:12:06.644Z,100.00
2022-08-22T00:15:41.990Z,100.00
2022-08-22T00:18:52.451Z,100.00
2022-08-22T00:22:20.783Z,100.00
2022-08-22T00:25:33.056Z,100.00
2022-08-22T00:28:41.823Z,100.00
2022-08-22T00:32:04.222Z,100.00
2022-08-22T00:35:27.177Z,100.00
2022-08-22T00:38:42.021Z,100.00
2022-08-22T00:41:50.607Z,100.00
2022-08-22T00:45:22.270Z,100.00
2022-08-22T00:48:43.856Z,100.00
2022-08-22T00:52:09.639Z,100.00
2022-08-22T00:55:34.830Z,100.00
2022-08-22T00:58:56.283Z,100.00
2022-08-22T01:02:26.258Z,100.00
2022-08-22T01:05:58.407Z,100.00
2022-08-22T01:09:09.013Z,100.00
2022-08-22T01:12:11.927Z,100.00
2022-08-22T01:15:19.858Z,100.00
2022-08-22T01:18:45.788Z,99.87
2022-08-22T01:22:09.943Z,100.00
2022-08-22T01:25:37.096Z,99.93
2022-08-22T01:29:11.138Z,100.00
2022-08-22T01:32:26.327Z,100.00
2022-08-22T01:35:59.420Z,99.52
2022-08-22T01:39:11.313Z,99.30
2022-08-22T01:42:22.091Z,99.38
2022-08-22T01:45:31.696Z,99.02
2022-08-22T01:48:44.748Z,99.07
2022-08-22T01:52:00.112Z,98.95
2022-08-22T01:55:14.364Z,98.58
2022-08-22T01:58:23.711Z,98.33
2022-08-22T02:01:36.483Z,98.41
2022-08-22T02:04:54.843Z,98.49
2022-08-22T02:08:18.549Z,98.20
2022-08-22T02:11:35.581Z,98.35
2022-08-22T02:14:54.869Z,98.62
2022-08-22T02:18:06.997Z,98.78
2022-08-22T02:21:16.900Z,99.35
2022-08-22T02:24:44.734Z,98.97
2022-08-22T02:28:07.167Z,98.73
2022-08-22T02:31:16.860Z,99.03
2022-08-22T02:34:38.335Z,98.37
2022-08-22T02:38:03.026Z,98.73
2022-08-22T02:41:23.949Z,98.72
2022-08-22T02:44:35.595Z,98.65
2022-08-22T02:47:47.099Z,98.18
2022-08-22T02:51:25.585Z,98.25
2022-08-22T02:54:37.609Z,98.43
2022-08-22T02:57:51.418Z,98.38
2022-08-22T03:01:03.175Z,98.85
2022-08-22T03:04:24.004Z,99.26
2022-08-22T03:07:43.446Z,99.11
2022-08-22T03:11:02.603Z,99.03
2022-08-22T03:14:16.423Z,99.28
2022-08-22T03:17:24.305Z,99.47
2022-08-22T03:20:48.103Z,99.48
2022-08-22T03:24:15.655Z,99.25
2022-08-22T03:27:32.444Z,98.93
2022-08-22T03:30:56.643Z,98.66
2022-08-22T03:34:26.446Z,98.15
2022-08-22T03:37:43.029Z,97.81
2022-08-22T03:41:03.916Z,97.26
2022-08-22T03:44:44.733Z,97.08
2022-08-22T03:48:02.465Z,97.08
2022-08-22T03:51:23.819Z,97.20
2022-08-22T03:54:48.955Z,97.62
2022-08-22T03:58:27.701Z,97.74
2022-08-22T04:02:02.004Z,97.82
2022-08-22T04:05:25.548Z,97.61
2022-08-22T04:08:36.794Z,97.50
2022-08-22T04:12:41.054Z,97.87
2022-08-22T04:15:58.944Z,97.69
2022-08-22T04:19:08.161Z,97.70
2022-08-22T04:22:21.983Z,97.71
2022-08-22T04:25:31.389Z,97.76
2022-08-22T04:28:40.275Z,97.97
2022-08-22T04:31:54.912Z,98.26
2022-08-22T04:35:26.080Z,98.33
2022-08-22T04:38:44.902Z,98.64
2022-08-22T04:42:16.054Z,98.88
2022-08-22T04:45:33.873Z,98.90
2022-08-22T04:48:58.924Z,99.05
2022-08-22T04:52:40.323Z,98.92
2022-08-22T04:55:55.104Z,99.26
2022-08-22T04:59:00.803Z,99.19
2022-08-22T05:02:10.758Z,99.17
